createdAt,value
2016-11-17T00:00:10.165Z,7.09
2016-11-17T00:01:11.700Z,7.06
2016-11-17T00:02:13.196Z,7.06
2016-11-17T00:03:14.725Z,7.02
2016-11-17T00:04:16.267Z,7.09
2016-11-17T00:05:17.756Z,7.13
2016-11-17T00:06:19.248Z,7.13
2016-11-17T00:07:20.735Z,7.17
2016-11-17T00:08:22.287Z,7.17
2016-11-17T00:09:23.775Z,7.21
2016-11-17T00:10:25.314Z,7.17
2016-11-17T00:11:26.831Z,7.21
2016-11-17T00:12:28.315Z,7.21
2016-11-17T00:13:29.866Z,7.29
2016-11-17T00:14:31.362Z,7.29
2016-11-17T00:15:32.912Z,7.29
2016-11-17T00:16:34.404Z,7.29
2016-11-17T00:17:35.945Z,7.29
2016-11-17T00:18:37.456Z,7.25
2016-11-17T00:19:38.940Z,7.21
2016-11-17T00:20:40.435Z,7.21
2016-11-17T00:21:41.941Z,7.21
2016-11-17T00:22:43.430Z,7.29
2016-11-17T00:23:44.950Z,7.29
2016-11-17T00:24:46.442Z,7.29
2016-11-17T00:25:47.947Z,7.33
2016-11-17T00:26:49.496Z,7.33
2016-11-17T00:27:51.014Z,7.33
2016-11-17T00:28:52.522Z,7.37
2016-11-17T00:29:54.016Z,7.33
2016-11-17T00:30:55.552Z,7.33
2016-11-17T00:31:57.039Z,7.29
2016-11-17T00:32:58.520Z,7.29
2016-11-17T00:34:00.079Z,7.33
2016-11-17T00:35:01.611Z,7.37
2016-11-17T00:36:03.097Z,7.41
2016-11-17T00:37:04.622Z,7.45
2016-11-17T00:38:06.107Z,7.41
2016-11-17T00:39:07.626Z,7.33
2016-11-17T00:40:09.172Z,7.37
2016-11-17T00:41:10.664Z,7.41
2016-11-17T00:42:12.144Z,7.41
2016-11-17T00:43:13.681Z,7.49
2016-11-17T00:44:15.176Z,7.53
2016-11-17T00:45:16.660Z,7.57
2016-11-17T00:46:18.147Z,7.57
2016-11-17T00:47:19.718Z,7.53
2016-11-17T00:48:21.253Z,7.57
2016-11-17T00:49:22.772Z,7.57
2016-11-17T00:50:24.269Z,7.57
2016-11-17T00:51:25.802Z,7.61
2016-11-17T00:52:27.330Z,7.61
2016-11-17T00:53:28.848Z,7.61
2016-11-17T00:54:30.363Z,7.64
2016-11-17T00:55:31.854Z,7.76
2016-11-17T00:56:33.337Z,7.76
2016-11-17T00:57:34.832Z,7.76
2016-11-17T00:58:36.341Z,7.68
2016-11-17T00:59:37.837Z,7.68
2016-11-17T01:00:39.318Z,7.68
2016-11-17T01:01:40.895Z,7.64
2016-11-17T01:02:42.395Z,7.61
2016-11-17T01:03:43.886Z,7.64
2016-11-17T01:04:45.392Z,7.68
2016-11-17T01:05:46.930Z,7.72
2016-11-17T01:06:48.422Z,7.76
2016-11-17T01:07:49.939Z,7.72
2016-11-17T01:08:51.430Z,7.76
2016-11-17T01:09:52.939Z,7.72
2016-11-17T01:10:54.498Z,7.72
2016-11-17T01:11:55.994Z,7.72
2016-11-17T01:12:57.478Z,7.64
2016-11-17T01:13:58.973Z,7.64
2016-11-17T01:15:00.515Z,7.64
2016-11-17T01:16:02.012Z,7.61
2016-11-17T01:17:03.507Z,7.61
2016-11-17T01:18:05.052Z,7.53
2016-11-17T01:19:06.535Z,7.45
2016-11-17T01:20:08.041Z,7.41
2016-11-17T01:21:09.558Z,7.41
2016-11-17T01:22:11.087Z,7.41
2016-11-17T01:23:12.674Z,7.37
2016-11-17T01:24:14.159Z,7.29
2016-11-17T01:25:15.721Z,7.21
2016-11-17T01:26:17.207Z,7.13
2016-11-17T01:27:18.766Z,7.17
2016-11-17T01:28:20.254Z,7.17
2016-11-17T01:29:21.740Z,7.13
2016-11-17T01:30:23.246Z,7.17
2016-11-17T01:31:24.731Z,7.21
2016-11-17T01:32:26.218Z,7.17
2016-11-17T01:33:27.701Z,7.13
2016-11-17T01:34:29.207Z,7.13
2016-11-17T01:35:30.746Z,7.13
2016-11-17T01:36:32.231Z,7.13
2016-11-17T01:37:33.752Z,7.17
2016-11-17T01:38:35.246Z,7.13
2016-11-17T01:39:36.733Z,7.13
2016-11-17T01:40:38.267Z,7.06
2016-11-17T01:41:39.791Z,7.06
2016-11-17T01:42:41.301Z,7.06
2016-11-17T01:43:42.787Z,7.09
2016-11-17T01:44:44.293Z,7.09
2016-11-17T01:45:45.791Z,7.13
2016-11-17T01:46:47.293Z,7.17
2016-11-17T01:47:48.784Z,7.17
2016-11-17T01:48:50.300Z,7.13
2016-11-17T01:49:51.791Z,7.17
2016-11-17T01:50:53.305Z,7.17
2016-11-17T01:51:54.801Z,7.21
2016-11-17T01:52:56.291Z,7.17
2016-11-17T01:53:57.777Z,7.17
2016-11-17T01:54:59.312Z,7.09
2016-11-17T01:56:00.824Z,7.09
2016-11-17T01:57:02.311Z,7.06
2016-11-17T01:58:03.809Z,7.09
2016-11-17T01:59:05.346Z,7.09
2016-11-17T02:00:06.879Z,7.06
2016-11-17T02:01:08.368Z,7.02
2016-11-17T02:02:09.856Z,7.02
2016-11-17T02:03:11.342Z,7.02
2016-11-17T02:04:12.880Z,7.02
2016-11-17T02:05:14.399Z,7.02
2016-11-17T02:06:15.909Z,7.02
2016-11-17T02:07:17.398Z,7.02
2016-11-17T02:08:18.926Z,7.06
2016-11-17T02:09:20.464Z,7.06
2016-11-17T02:10:21.951Z,7.02
2016-11-17T02:11:23.513Z,7.09
2016-11-17T02:12:25.009Z,7.09
2016-11-17T02:13:26.518Z,7.13
2016-11-17T02:14:28.007Z,7.13
2016-11-17T02:15:29.493Z,7.17
2016-11-17T02:16:31.003Z,7.17
2016-11-17T02:17:32.522Z,7.13
2016-11-17T02:18:34.019Z,7.09
2016-11-17T02:19:35.545Z,7.06
2016-11-17T02:20:37.063Z,7.09
2016-11-17T02:21:38.599Z,7.06
2016-11-17T02:22:40.136Z,7.06
2016-11-17T02:23:41.621Z,7.06
2016-11-17T02:24:43.115Z,7.02
2016-11-17T02:25:44.597Z,7.02
2016-11-17T02:26:46.137Z,6.94
2016-11-17T02:27:47.607Z,6.9
2016-11-17T02:28:49.126Z,6.82
2016-11-17T02:29:50.613Z,6.74
2016-11-17T02:30:52.156Z,6.74
2016-11-17T02:31:53.653Z,6.7
2016-11-17T02:32:55.160Z,6.78
2016-11-17T02:33:56.642Z,6.78
2016-11-17T02:34:58.147Z,6.74
2016-11-17T02:35:59.668Z,6.82
2016-11-17T02:37:01.171Z,6.82
2016-11-17T02:38:02.660Z,6.86
2016-11-17T02:39:04.174Z,6.82
2016-11-17T02:40:05.695Z,6.7
2016-11-17T02:41:07.187Z,6.66
2016-11-17T02:42:08.690Z,6.66
2016-11-17T02:43:10.178Z,6.66
2016-11-17T02:44:11.688Z,6.66
2016-11-17T02:45:13.212Z,6.62
2016-11-17T02:46:14.719Z,6.62
2016-11-17T02:47:16.230Z,6.66
2016-11-17T02:48:17.717Z,6.62
2016-11-17T02:49:19.228Z,6.66
2016-11-17T02:50:20.699Z,6.7
2016-11-17T02:51:22.184Z,6.66
2016-11-17T02:52:23.688Z,6.62
2016-11-17T02:53:25.190Z,6.62
2016-11-17T02:54:26.728Z,6.58
2016-11-17T02:55:28.260Z,6.58
2016-11-17T02:56:29.801Z,6.66
2016-11-17T02:57:31.294Z,6.66
2016-11-17T02:58:32.798Z,6.66
2016-11-17T02:59:34.340Z,6.66
2016-11-17T03:00:35.824Z,6.66
2016-11-17T03:01:37.287Z,6.7
2016-11-17T03:02:38.829Z,6.7
2016-11-17T03:03:40.354Z,6.66
2016-11-17T03:04:41.834Z,6.7
2016-11-17T03:05:43.370Z,6.82
2016-11-17T03:06:44.857Z,6.86
2016-11-17T03:07:46.387Z,6.94
2016-11-17T03:08:47.875Z,6.98
2016-11-17T03:09:49.364Z,7.02
2016-11-17T03:10:50.847Z,6.98
2016-11-17T03:11:52.338Z,6.98
2016-11-17T03:12:53.846Z,7.02
2016-11-17T03:13:55.338Z,7.02
2016-11-17T03:14:56.824Z,7.02
2016-11-17T03:15:58.358Z,7.06
2016-11-17T03:16:59.842Z,7.06
2016-11-17T03:18:01.339Z,7.09
2016-11-17T03:19:02.823Z,7.02
2016-11-17T03:20:04.337Z,6.98
2016-11-17T03:21:05.849Z,6.94
2016-11-17T03:22:07.324Z,6.9
2016-11-17T03:23:08.829Z,6.82
2016-11-17T03:24:10.311Z,6.86
2016-11-17T03:25:11.782Z,6.9
2016-11-17T03:26:13.275Z,6.94
2016-11-17T03:27:14.771Z,6.94
2016-11-17T03:28:16.257Z,6.94
2016-11-17T03:29:17.749Z,6.94
2016-11-17T03:30:19.232Z,6.9
2016-11-17T03:31:20.697Z,6.9
2016-11-17T03:32:22.204Z,6.9
2016-11-17T03:33:23.677Z,6.9
2016-11-17T03:34:25.182Z,6.9
2016-11-17T03:35:26.701Z,6.9
2016-11-17T03:36:28.169Z,6.9
2016-11-17T03:37:29.661Z,6.9
2016-11-17T03:38:31.139Z,6.9
2016-11-17T03:39:32.645Z,6.9
2016-11-17T03:40:34.141Z,6.86
2016-11-17T03:41:35.637Z,6.86
2016-11-17T03:42:37.120Z,6.86
2016-11-17T03:43:38.659Z,6.9
2016-11-17T03:44:40.165Z,6.94
2016-11-17T03:45:41.656Z,6.94
2016-11-17T03:46:43.197Z,6.98
2016-11-17T03:47:44.688Z,6.98
2016-11-17T03:48:46.182Z,7.02
2016-11-17T03:49:47.681Z,6.98
2016-11-17T03:50:49.223Z,6.98
2016-11-17T03:51:50.717Z,7.02
2016-11-17T03:52:52.199Z,6.98
2016-11-17T03:53:53.745Z,6.98
2016-11-17T03:54:55.237Z,6.98
2016-11-17T03:55:56.761Z,6.98
2016-11-17T03:56:58.249Z,6.98
2016-11-17T03:57:59.759Z,6.98
2016-11-17T03:59:01.301Z,6.98
2016-11-17T04:00:02.796Z,6.98
2016-11-17T04:01:04.280Z,6.98
2016-11-17T04:02:05.764Z,6.98
2016-11-17T04:03:07.305Z,6.98
2016-11-17T04:04:08.827Z,6.98
2016-11-17T04:05:10.367Z,7.02
2016-11-17T04:06:11.853Z,6.98
2016-11-17T04:07:13.342Z,6.98
2016-11-17T04:08:14.835Z,6.98
2016-11-17T04:09:16.344Z,6.98
2016-11-17T04:10:17.829Z,7.02
2016-11-17T04:11:19.324Z,7.06
2016-11-17T04:12:20.814Z,7.06
2016-11-17T04:13:22.305Z,7.13
2016-11-17T04:14:23.837Z,7.17
2016-11-17T04:15:25.340Z,7.21
2016-11-17T04:16:26.846Z,7.25
2016-11-17T04:17:28.360Z,7.29
2016-11-17T04:18:29.850Z,7.33
2016-11-17T04:19:31.399Z,7.37
2016-11-17T04:20:32.935Z,7.41
2016-11-17T04:21:34.425Z,7.45
2016-11-17T04:22:35.922Z,7.45
2016-11-17T04:23:37.427Z,7.45
2016-11-17T04:24:38.975Z,7.45
2016-11-17T04:25:40.465Z,7.49
2016-11-17T04:26:41.949Z,7.53
2016-11-17T04:27:43.441Z,7.57
2016-11-17T04:28:44.990Z,7.57
2016-11-17T04:29:46.524Z,7.57
2016-11-17T04:30:48.008Z,7.53
2016-11-17T04:31:49.500Z,7.53
2016-11-17T04:32:50.983Z,7.53
2016-11-17T04:33:52.471Z,7.53
2016-11-17T04:34:54.028Z,7.53
2016-11-17T04:35:55.514Z,7.49
2016-11-17T04:36:57.003Z,7.53
2016-11-17T04:37:58.503Z,7.53
2016-11-17T04:38:59.992Z,7.57
2016-11-17T04:40:01.544Z,7.53
2016-11-17T04:41:03.034Z,7.57
2016-11-17T04:42:04.522Z,7.57
2016-11-17T04:43:06.011Z,7.57
2016-11-17T04:44:07.498Z,7.53
2016-11-17T04:45:08.997Z,7.49
2016-11-17T04:46:10.480Z,7.49
2016-11-17T04:47:11.973Z,7.53
2016-11-17T04:48:13.481Z,7.53
2016-11-17T04:49:14.968Z,7.57
2016-11-17T04:50:16.499Z,7.57
2016-11-17T04:51:18.043Z,7.53
2016-11-17T04:52:19.536Z,7.61
2016-11-17T04:53:21.028Z,7.57
2016-11-17T04:54:22.513Z,7.61
2016-11-17T04:55:24.073Z,7.61
2016-11-17T04:56:25.556Z,7.61
2016-11-17T04:57:27.043Z,7.61
2016-11-17T04:58:28.551Z,7.57
2016-11-17T04:59:30.050Z,7.57
2016-11-17T05:00:31.562Z,7.57
2016-11-17T05:01:33.060Z,7.53
2016-11-17T05:02:34.603Z,7.53
2016-11-17T05:03:36.092Z,7.57
2016-11-17T05:04:37.587Z,7.53
2016-11-17T05:05:39.101Z,7.57
2016-11-17T05:06:40.642Z,7.57
2016-11-17T05:07:42.122Z,7.57
2016-11-17T05:08:43.687Z,7.53
2016-11-17T05:09:45.209Z,7.53
2016-11-17T05:10:46.745Z,7.53
2016-11-17T05:11:48.232Z,7.53
2016-11-17T05:12:49.778Z,7.53
2016-11-17T05:13:51.315Z,7.49
2016-11-17T05:14:52.856Z,7.49
2016-11-17T05:15:54.347Z,7.49
2016-11-17T05:16:55.833Z,7.45
2016-11-17T05:17:57.344Z,7.41
2016-11-17T05:18:58.889Z,7.37
2016-11-17T05:20:00.379Z,7.29
2016-11-17T05:21:01.884Z,7.29
2016-11-17T05:22:03.408Z,7.25
2016-11-17T05:23:04.897Z,7.29
2016-11-17T05:24:06.435Z,7.33
2016-11-17T05:25:07.921Z,7.33
2016-11-17T05:26:09.436Z,7.37
2016-11-17T05:27:10.921Z,7.41
2016-11-17T05:28:12.457Z,7.41
2016-11-17T05:29:13.982Z,7.41
2016-11-17T05:30:15.514Z,7.41
2016-11-17T05:31:17.022Z,7.41
2016-11-17T05:32:18.571Z,7.45
2016-11-17T05:33:20.108Z,7.41
2016-11-17T05:34:21.653Z,7.37
2016-11-17T05:35:23.182Z,7.33
2016-11-17T05:36:24.718Z,7.29
2016-11-17T05:37:26.204Z,7.29
2016-11-17T05:38:27.718Z,7.29
2016-11-17T05:39:29.215Z,7.21
2016-11-17T05:40:30.700Z,7.21
2016-11-17T05:41:32.256Z,7.17
2016-11-17T05:42:33.782Z,7.17
2016-11-17T05:43:35.272Z,7.13
2016-11-17T05:44:36.757Z,7.09
2016-11-17T05:45:38.287Z,7.06
2016-11-17T05:46:39.810Z,7.09
2016-11-17T05:47:41.322Z,7.09
2016-11-17T05:48:42.808Z,7.13
2016-11-17T05:49:44.296Z,7.17
2016-11-17T05:50:45.811Z,7.17
2016-11-17T05:51:47.335Z,7.13
2016-11-17T05:52:48.825Z,7.13
2016-11-17T05:53:50.316Z,7.13
2016-11-17T05:54:51.801Z,7.13
2016-11-17T05:55:53.314Z,7.09
2016-11-17T05:56:54.820Z,7.09
2016-11-17T05:57:56.336Z,7.09
2016-11-17T05:58:57.820Z,7.13
2016-11-17T05:59:59.360Z,7.13
2016-11-17T06:01:00.847Z,7.13
2016-11-17T06:02:02.398Z,7.13
2016-11-17T06:03:03.934Z,7.13
2016-11-17T06:04:05.445Z,7.09
2016-11-17T06:05:06.934Z,7.09
2016-11-17T06:06:08.481Z,7.06
2016-11-17T06:07:09.991Z,7.02
2016-11-17T06:08:11.471Z,7.02
2016-11-17T06:09:12.998Z,6.98
2016-11-17T06:10:14.571Z,6.98
2016-11-17T06:11:16.107Z,6.98
2016-11-17T06:12:17.635Z,6.98
2016-11-17T06:13:19.124Z,6.98
2016-11-17T06:14:20.613Z,6.98
2016-11-17T06:15:22.106Z,7.02
2016-11-17T06:16:23.627Z,6.98
2016-11-17T06:17:25.129Z,7.02
2016-11-17T06:18:26.633Z,7.02
2016-11-17T06:19:28.148Z,7.02
2016-11-17T06:20:29.688Z,7.02
2016-11-17T06:21:31.182Z,7.02
2016-11-17T06:22:32.715Z,7.02
2016-11-17T06:23:34.211Z,6.98
2016-11-17T06:24:35.694Z,6.98
2016-11-17T06:25:37.177Z,6.94
2016-11-17T06:26:38.671Z,6.94
2016-11-17T06:27:40.234Z,6.94
2016-11-17T06:28:41.728Z,6.98
2016-11-17T06:29:43.308Z,6.94
2016-11-17T06:30:44.824Z,6.94
2016-11-17T06:31:46.363Z,6.94
2016-11-17T06:32:47.854Z,6.98
2016-11-17T06:33:49.406Z,6.98
2016-11-17T06:34:50.893Z,6.98
2016-11-17T06:35:52.382Z,7.02
2016-11-17T06:36:53.869Z,7.02
2016-11-17T06:37:55.385Z,7.02
2016-11-17T06:38:56.870Z,7.02
2016-11-17T06:39:58.368Z,7.02
2016-11-17T06:40:59.879Z,7.06
2016-11-17T06:42:01.363Z,7.02
2016-11-17T06:43:02.873Z,7.06
2016-11-17T06:44:04.392Z,7.06
2016-11-17T06:45:05.908Z,7.06
2016-11-17T06:46:07.442Z,7.06
2016-11-17T06:47:08.931Z,7.09
2016-11-17T06:48:10.461Z,7.09
2016-11-17T06:49:11.944Z,7.09
2016-11-17T06:50:13.475Z,7.09
2016-11-17T06:51:14.967Z,7.13
2016-11-17T06:52:16.449Z,7.13
2016-11-17T06:53:17.981Z,7.13
2016-11-17T06:54:19.469Z,7.13
2016-11-17T06:55:20.957Z,7.13
2016-11-17T06:56:22.460Z,7.13
2016-11-17T06:57:23.954Z,7.17
2016-11-17T06:58:25.474Z,7.17
2016-11-17T06:59:26.964Z,7.17
2016-11-17T07:00:28.464Z,7.17
2016-11-17T07:01:29.959Z,7.21
2016-11-17T07:02:31.447Z,7.21
2016-11-17T07:03:32.975Z,7.21
2016-11-17T07:04:34.500Z,7.21
2016-11-17T07:05:36.042Z,7.25
2016-11-17T07:06:37.529Z,7.25
2016-11-17T07:07:39.072Z,7.25
2016-11-17T07:08:40.626Z,7.25
2016-11-17T07:09:42.108Z,7.25
2016-11-17T07:10:43.595Z,7.29
2016-11-17T07:11:45.112Z,7.29
2016-11-17T07:12:46.623Z,7.29
2016-11-17T07:13:48.160Z,7.29
2016-11-17T07:14:49.649Z,7.33
2016-11-17T07:15:51.168Z,7.33
2016-11-17T07:16:52.680Z,7.33
2016-11-17T07:17:54.249Z,7.33
2016-11-17T07:18:55.760Z,7.33
2016-11-17T07:19:57.245Z,7.33
2016-11-17T07:20:58.764Z,7.33
2016-11-17T07:22:00.255Z,7.33
2016-11-17T07:23:01.739Z,7.33
2016-11-17T07:24:03.243Z,7.37
2016-11-17T07:25:04.783Z,7.37
2016-11-17T07:26:06.271Z,7.37
2016-11-17T07:27:07.773Z,7.41
2016-11-17T07:28:09.264Z,7.41
2016-11-17T07:29:10.818Z,7.45
2016-11-17T07:30:12.308Z,7.45
2016-11-17T07:31:13.796Z,7.45
2016-11-17T07:32:15.288Z,7.45
2016-11-17T07:33:16.809Z,7.45
2016-11-17T07:34:18.317Z,7.45
2016-11-17T07:35:19.809Z,7.45
2016-11-17T07:36:21.296Z,7.45
2016-11-17T07:37:22.853Z,7.45
2016-11-17T07:38:24.347Z,7.49
2016-11-17T07:39:25.861Z,7.49
2016-11-17T07:40:27.349Z,7.49
2016-11-17T07:41:28.848Z,7.53
2016-11-17T07:42:30.369Z,7.57
2016-11-17T07:43:31.860Z,7.57
2016-11-17T07:44:33.455Z,7.57
2016-11-17T07:45:34.943Z,7.61
2016-11-17T07:46:36.466Z,7.61
2016-11-17T07:47:38.030Z,7.61
2016-11-17T07:48:39.520Z,7.61
2016-11-17T07:49:41.054Z,7.64
2016-11-17T07:50:42.537Z,7.64
2016-11-17T07:51:44.098Z,7.64
2016-11-17T07:52:45.599Z,7.64
2016-11-17T07:53:47.089Z,7.64
2016-11-17T07:54:48.591Z,7.64
2016-11-17T07:55:50.075Z,7.64
2016-11-17T07:56:51.558Z,7.64
2016-11-17T07:57:53.047Z,7.61
2016-11-17T07:58:54.547Z,7.61
2016-11-17T07:59:56.062Z,7.61
2016-11-17T08:00:57.610Z,7.61
2016-11-17T08:01:59.101Z,7.61
2016-11-17T08:03:00.592Z,7.61
2016-11-17T08:04:02.132Z,7.61
2016-11-17T08:05:03.684Z,7.61
2016-11-17T08:06:05.182Z,7.61
2016-11-17T08:07:06.673Z,7.64
2016-11-17T08:08:08.213Z,7.64
2016-11-17T08:09:09.697Z,7.64
2016-11-17T08:10:11.259Z,7.68
2016-11-17T08:11:12.819Z,7.72
2016-11-17T08:12:14.303Z,7.72
2016-11-17T08:13:15.820Z,7.68
2016-11-17T08:14:17.337Z,7.68
2016-11-17T08:15:18.906Z,7.68
2016-11-17T08:16:20.391Z,7.72
2016-11-17T08:17:21.934Z,7.76
2016-11-17T08:18:23.434Z,7.8
2016-11-17T08:19:24.923Z,7.84
2016-11-17T08:20:26.428Z,7.84
2016-11-17T08:21:27.929Z,7.84
2016-11-17T08:22:29.419Z,7.84
2016-11-17T08:23:30.904Z,7.84
2016-11-17T08:24:32.395Z,7.84
2016-11-17T08:25:33.974Z,7.84
2016-11-17T08:26:35.515Z,7.88
2016-11-17T08:27:37.040Z,7.88
2016-11-17T08:28:38.544Z,7.88
2016-11-17T08:29:40.032Z,7.88
2016-11-17T08:30:41.546Z,7.92
2016-11-17T08:31:43.032Z,7.96
2016-11-17T08:32:44.548Z,8
2016-11-17T08:33:46.038Z,8.03
2016-11-17T08:34:47.546Z,8.03
2016-11-17T08:35:49.059Z,8.07
2016-11-17T08:36:50.543Z,8.11
2016-11-17T08:37:52.051Z,8.19
2016-11-17T08:38:53.587Z,8.23
2016-11-17T08:39:55.076Z,8.27
2016-11-17T08:40:56.596Z,8.31
2016-11-17T08:41:58.094Z,8.38
2016-11-17T08:42:59.583Z,8.38
2016-11-17T08:44:01.069Z,8.31
2016-11-17T08:45:02.587Z,8.27
2016-11-17T08:46:04.122Z,8.23
2016-11-17T08:47:05.648Z,8.19
2016-11-17T08:48:07.137Z,8.23
2016-11-17T08:49:08.650Z,8.19
2016-11-17T08:50:10.144Z,8.23
2016-11-17T08:51:11.679Z,8.23
2016-11-17T08:52:13.191Z,8.19
2016-11-17T08:53:14.675Z,8.19
2016-11-17T08:54:16.167Z,8.15
2016-11-17T08:55:17.727Z,8.11
2016-11-17T08:56:19.238Z,8.11
2016-11-17T08:57:20.781Z,8.11
2016-11-17T08:58:22.269Z,8.15
2016-11-17T08:59:23.833Z,8.23
2016-11-17T09:00:25.320Z,8.23
2016-11-17T09:01:26.874Z,8.23
2016-11-17T09:02:28.368Z,8.27
2016-11-17T09:03:29.897Z,8.31
2016-11-17T09:04:31.384Z,8.27
2016-11-17T09:05:32.878Z,8.27
2016-11-17T09:06:34.385Z,8.31
2016-11-17T09:07:35.873Z,8.27
2016-11-17T09:08:37.370Z,8.31
2016-11-17T09:09:38.908Z,8.34
2016-11-17T09:10:40.442Z,8.34
2016-11-17T09:11:41.953Z,8.34
2016-11-17T09:12:43.449Z,8.34
2016-11-17T09:13:44.936Z,8.42
2016-11-17T09:14:46.412Z,8.5
2016-11-17T09:15:47.898Z,8.54
2016-11-17T09:16:49.463Z,8.54
2016-11-17T09:17:50.950Z,8.54
2016-11-17T09:18:52.454Z,8.5
2016-11-17T09:19:53.971Z,8.5
2016-11-17T09:20:55.463Z,8.42
2016-11-17T09:21:56.974Z,8.38
2016-11-17T09:22:58.467Z,8.34
2016-11-17T09:23:59.949Z,8.34
2016-11-17T09:25:01.436Z,8.38
2016-11-17T09:26:02.961Z,8.46
2016-11-17T09:27:04.483Z,8.5
2016-11-17T09:28:05.974Z,8.58
2016-11-17T09:29:07.496Z,8.62
2016-11-17T09:30:09.025Z,8.58
2016-11-17T09:31:10.527Z,8.65
2016-11-17T09:32:12.082Z,8.65
2016-11-17T09:33:13.627Z,8.65
2016-11-17T09:34:15.116Z,8.73
2016-11-17T09:35:16.606Z,8.77
2016-11-17T09:36:18.151Z,8.81
2016-11-17T09:37:19.694Z,8.77
2016-11-17T09:38:21.230Z,8.73
2016-11-17T09:39:22.969Z,8.73
2016-11-17T09:40:24.466Z,8.77
2016-11-17T09:41:25.957Z,8.73
2016-11-17T09:42:27.506Z,8.69
2016-11-17T09:43:28.995Z,8.65
2016-11-17T09:44:30.536Z,8.62
2016-11-17T09:45:32.024Z,8.54
2016-11-17T09:46:33.567Z,8.46
2016-11-17T09:47:35.074Z,8.42
2016-11-17T09:48:36.565Z,8.31
2016-11-17T09:49:38.056Z,8.27
2016-11-17T09:50:39.549Z,8.23
2016-11-17T09:51:41.029Z,8.27
2016-11-17T09:52:42.550Z,8.38
2016-11-17T09:53:44.025Z,8.5
2016-11-17T09:54:45.513Z,8.62
2016-11-17T09:55:47.032Z,8.5
2016-11-17T09:56:48.559Z,8.46
2016-11-17T09:57:50.055Z,8.5
2016-11-17T09:58:51.541Z,8.62
2016-11-17T09:59:53.082Z,8.73
2016-11-17T10:00:54.621Z,8.81
2016-11-17T10:01:56.116Z,8.92
2016-11-17T10:02:57.627Z,8.96
2016-11-17T10:03:59.116Z,9.04
2016-11-17T10:05:00.589Z,9
2016-11-17T10:06:02.070Z,9
2016-11-17T10:07:03.568Z,9.08
2016-11-17T10:08:05.103Z,9.15
2016-11-17T10:09:06.587Z,9.15
2016-11-17T10:10:08.075Z,9.11
2016-11-17T10:11:09.616Z,9.15
2016-11-17T10:12:11.143Z,9.15
2016-11-17T10:13:12.630Z,9
2016-11-17T10:14:14.138Z,8.85
2016-11-17T10:15:15.620Z,8.65
2016-11-17T10:16:17.135Z,8.58
2016-11-17T10:17:18.673Z,8.62
2016-11-17T10:18:20.183Z,8.69
2016-11-17T10:19:21.672Z,8.77
2016-11-17T10:20:23.199Z,8.81
2016-11-17T10:21:24.689Z,8.77
2016-11-17T10:22:26.220Z,8.65
2016-11-17T10:23:27.761Z,8.65
2016-11-17T10:24:29.248Z,8.58
2016-11-17T10:25:30.775Z,8.54
2016-11-17T10:26:32.280Z,8.5
2016-11-17T10:27:33.773Z,8.42
2016-11-17T10:28:35.278Z,8.42
2016-11-17T10:29:36.767Z,8.46
2016-11-17T10:30:38.260Z,8.73
2016-11-17T10:31:39.746Z,9.11
2016-11-17T10:32:41.264Z,9.42
2016-11-17T10:33:42.775Z,9.46
2016-11-17T10:34:44.302Z,9.53
2016-11-17T10:35:45.845Z,9.46
2016-11-17T10:36:47.342Z,9.38
2016-11-17T10:37:48.836Z,9.34
2016-11-17T10:38:50.378Z,9.34
2016-11-17T10:39:51.906Z,9.27
2016-11-17T10:40:53.410Z,9.15
2016-11-17T10:41:54.943Z,9.08
2016-11-17T10:42:56.433Z,9.08
2016-11-17T10:43:57.977Z,9.08
2016-11-17T10:44:59.468Z,9.08
2016-11-17T10:46:00.975Z,9.04
2016-11-17T10:47:02.466Z,9.08
2016-11-17T10:48:03.957Z,9.15
2016-11-17T10:49:05.458Z,9.15
2016-11-17T10:50:06.968Z,9.11
2016-11-17T10:51:08.455Z,9.04
2016-11-17T10:52:09.944Z,9.04
2016-11-17T10:53:11.424Z,9.04
2016-11-17T10:54:12.986Z,9.04
2016-11-17T10:55:14.471Z,9.11
2016-11-17T10:56:15.962Z,9.34
2016-11-17T10:57:17.451Z,9.57
2016-11-17T10:58:18.938Z,9.61
2016-11-17T10:59:20.503Z,9.61
2016-11-17T11:00:22.025Z,9.57
2016-11-17T11:01:23.564Z,9.46
2016-11-17T11:02:25.101Z,9.34
2016-11-17T11:03:26.629Z,9.23
2016-11-17T11:04:28.143Z,9.15
2016-11-17T11:05:29.632Z,9.15
2016-11-17T11:06:31.115Z,9.15
2016-11-17T11:07:32.632Z,9.08
2016-11-17T11:08:34.167Z,9.04
2016-11-17T11:09:35.682Z,8.96
2016-11-17T11:10:37.224Z,8.88
2016-11-17T11:11:38.705Z,8.81
2016-11-17T11:12:40.239Z,8.85
2016-11-17T11:13:41.786Z,8.85
2016-11-17T11:14:43.324Z,8.85
2016-11-17T11:15:44.853Z,8.81
2016-11-17T11:16:46.342Z,8.77
2016-11-17T11:17:47.842Z,8.77
2016-11-17T11:18:49.330Z,8.81
2016-11-17T11:19:50.841Z,8.77
2016-11-17T11:20:52.332Z,8.77
2016-11-17T11:21:53.866Z,8.77
2016-11-17T11:22:55.394Z,8.77
2016-11-17T11:23:56.921Z,8.81
2016-11-17T11:24:58.429Z,8.81
2016-11-17T11:25:59.910Z,8.81
2016-11-17T11:27:01.411Z,8.81
2016-11-17T11:28:02.900Z,8.81
2016-11-17T11:29:04.391Z,8.85
2016-11-17T11:30:05.949Z,8.85
2016-11-17T11:31:07.451Z,8.92
2016-11-17T11:32:08.936Z,8.92
2016-11-17T11:33:10.452Z,8.92
2016-11-17T11:34:11.977Z,8.88
2016-11-17T11:35:13.486Z,8.88
2016-11-17T11:36:14.984Z,8.85
2016-11-17T11:37:16.466Z,8.81
2016-11-17T11:38:17.954Z,8.81
2016-11-17T11:39:19.487Z,8.81
2016-11-17T11:40:20.999Z,8.81
2016-11-17T11:41:22.526Z,8.85
2016-11-17T11:42:24.031Z,8.88
2016-11-17T11:43:25.527Z,8.88
2016-11-17T11:44:27.042Z,8.88
2016-11-17T11:45:28.554Z,8.85
2016-11-17T11:46:30.039Z,8.85
2016-11-17T11:47:31.519Z,8.81
2016-11-17T11:48:33.070Z,8.81
2016-11-17T11:49:34.553Z,8.85
2016-11-17T11:50:36.059Z,8.92
2016-11-17T11:51:37.550Z,8.92
2016-11-17T11:52:39.071Z,8.96
2016-11-17T11:53:40.550Z,9
2016-11-17T11:54:42.037Z,9.04
2016-11-17T11:55:43.546Z,9.08
2016-11-17T11:56:45.064Z,9.11
2016-11-17T11:57:46.558Z,9.19
2016-11-17T11:58:48.116Z,9.23
2016-11-17T11:59:49.608Z,9.38
2016-11-17T12:00:51.148Z,9.46
2016-11-17T12:01:52.645Z,9.53
2016-11-17T12:02:54.146Z,9.57
2016-11-17T12:03:55.662Z,9.57
2016-11-17T12:04:57.166Z,9.57
2016-11-17T12:05:58.677Z,9.61
2016-11-17T12:07:00.165Z,9.61
2016-11-17T12:08:01.685Z,9.57
2016-11-17T12:09:03.207Z,9.53
2016-11-17T12:10:04.699Z,9.53
2016-11-17T12:11:06.195Z,9.5
2016-11-17T12:12:07.671Z,9.5
2016-11-17T12:13:09.142Z,9.5
2016-11-17T12:14:10.635Z,9.57
2016-11-17T12:15:12.120Z,9.57
2016-11-17T12:16:13.632Z,9.61
2016-11-17T12:17:15.122Z,9.61
2016-11-17T12:18:16.659Z,9.76
2016-11-17T12:19:18.148Z,9.76
2016-11-17T12:20:19.637Z,9.69
2016-11-17T12:21:21.180Z,9.69
2016-11-17T12:22:22.674Z,9.69
2016-11-17T12:23:24.163Z,9.72
2016-11-17T12:24:25.686Z,9.72
2016-11-17T12:25:27.231Z,9.72
2016-11-17T12:26:28.745Z,9.69
2016-11-17T12:27:30.232Z,9.61
2016-11-17T12:28:31.747Z,9.53
2016-11-17T12:29:33.253Z,9.53
2016-11-17T12:30:34.726Z,9.5
2016-11-17T12:31:36.229Z,9.46
2016-11-17T12:32:37.737Z,9.38
2016-11-17T12:33:39.274Z,9.34
2016-11-17T12:34:40.765Z,9.27
2016-11-17T12:35:42.263Z,9.23
2016-11-17T12:36:43.827Z,9.19
2016-11-17T12:37:45.312Z,9.15
2016-11-17T12:38:46.825Z,9.11
2016-11-17T12:39:48.321Z,9.08
2016-11-17T12:40:49.844Z,9.08
2016-11-17T12:41:51.336Z,9.04
2016-11-17T12:42:52.850Z,9
2016-11-17T12:43:54.355Z,9
2016-11-17T12:44:55.839Z,9.04
2016-11-17T12:45:57.331Z,9.08
2016-11-17T12:46:58.874Z,9.08
2016-11-17T12:48:00.416Z,9.08
2016-11-17T12:49:01.908Z,9.15
2016-11-17T12:50:03.394Z,9.19
2016-11-17T12:51:04.888Z,9.19
2016-11-17T12:52:06.436Z,9.27
2016-11-17T12:53:07.928Z,9.34
2016-11-17T12:54:09.420Z,9.38
2016-11-17T12:55:10.925Z,9.42
2016-11-17T12:56:12.401Z,9.5
2016-11-17T12:57:13.919Z,9.57
2016-11-17T12:58:15.441Z,9.61
2016-11-17T12:59:16.986Z,9.65
2016-11-17T13:00:18.503Z,9.65
2016-11-17T13:01:19.986Z,9.69
2016-11-17T13:02:21.527Z,9.76
2016-11-17T13:03:23.054Z,9.8
2016-11-17T13:04:24.538Z,9.72
2016-11-17T13:05:26.055Z,9.61
2016-11-17T13:06:27.542Z,9.53
2016-11-17T13:07:29.053Z,9.46
2016-11-17T13:08:30.593Z,9.46
2016-11-17T13:09:32.113Z,9.5
2016-11-17T13:10:33.654Z,9.69
2016-11-17T13:11:35.139Z,9.76
2016-11-17T13:12:36.716Z,9.91
2016-11-17T13:13:38.204Z,9.91
2016-11-17T13:14:39.693Z,9.91
2016-11-17T13:15:41.184Z,9.91
2016-11-17T13:16:42.719Z,9.88
2016-11-17T13:17:44.239Z,9.8
2016-11-17T13:18:45.723Z,9.76
2016-11-17T13:19:47.220Z,9.72
2016-11-17T13:20:48.709Z,9.69
2016-11-17T13:21:50.202Z,9.61
2016-11-17T13:22:51.742Z,9.57
2016-11-17T13:23:53.232Z,9.5
2016-11-17T13:24:54.729Z,9.38
2016-11-17T13:25:56.244Z,9.31
2016-11-17T13:26:57.753Z,9.23
2016-11-17T13:27:59.264Z,9.15
2016-11-17T13:29:00.795Z,9.11
2016-11-17T13:30:02.341Z,9.04
2016-11-17T13:31:03.840Z,9
2016-11-17T13:32:05.324Z,8.96
2016-11-17T13:33:06.949Z,8.92
2016-11-17T13:34:08.465Z,8.88
2016-11-17T13:35:09.979Z,8.85
2016-11-17T13:36:11.496Z,8.81
2016-11-17T13:37:13.010Z,8.81
2016-11-17T13:38:14.577Z,8.81
2016-11-17T13:39:16.062Z,8.77
2016-11-17T13:40:17.627Z,8.73